createdAt,value
2018-12-31T00:02:04.458Z,73.93
2018-12-31T00:04:36.229Z,74.21
2018-12-31T00:07:07.517Z,75.22
2018-12-31T00:09:38.011Z,74.91
2018-12-31T00:12:10.817Z,73.53
2018-12-31T00:14:42.366Z,74.75
2018-12-31T00:17:13.067Z,74.28
2018-12-31T00:19:47.490Z,74.95
2018-12-31T00:22:17.858Z,72.89
2018-12-31T00:24:48.755Z,73.82
2018-12-31T00:27:19.168Z,73.91
2018-12-31T00:29:49.534Z,74.85
2018-12-31T00:32:19.741Z,75.33
2018-12-31T00:34:49.909Z,75.53
2018-12-31T00:37:20.327Z,74.89
2018-12-31T00:39:51.077Z,74.75
2018-12-31T00:42:21.224Z,74.64
2018-12-31T00:44:51.775Z,74.72
2018-12-31T00:47:25.338Z,74.59
2018-12-31T00:49:55.507Z,75.14
2018-12-31T00:52:25.952Z,74.66
2018-12-31T00:55:06.341Z,75.16
2018-12-31T00:57:37.135Z,74.93
2018-12-31T01:00:13.423Z,74.10
2018-12-31T01:02:43.659Z,74.97
2018-12-31T01:05:14.908Z,75.28
2018-12-31T01:07:45.844Z,75.73
2018-12-31T01:10:17.023Z,75.86
2018-12-31T01:12:47.193Z,75.78
2018-12-31T01:15:17.670Z,75.54
2018-12-31T01:17:47.809Z,75.03
2018-12-31T01:20:17.931Z,74.65
2018-12-31T01:22:48.127Z,74.04
2018-12-31T01:25:18.323Z,74.71
2018-12-31T01:27:48.432Z,74.52
2018-12-31T01:30:18.580Z,74.80
2018-12-31T01:32:48.689Z,74.71
2018-12-31T01:35:19.128Z,74.42
2018-12-31T01:37:49.583Z,74.46
2018-12-31T01:40:19.950Z,74.63
2018-12-31T01:42:50.364Z,75.07
2018-12-31T01:45:20.875Z,75.19
2018-12-31T01:47:51.014Z,75.44
2018-12-31T01:50:21.403Z,75.19
2018-12-31T01:52:51.511Z,75.47
2018-12-31T01:55:21.867Z,75.44
2018-12-31T01:57:52.321Z,75.71
2018-12-31T02:00:22.442Z,75.76
2018-12-31T02:02:52.837Z,75.70
2018-12-31T02:05:22.945Z,75.44
2018-12-31T02:07:53.341Z,74.91
2018-12-31T02:10:23.470Z,75.04
2018-12-31T02:12:53.586Z,74.90
2018-12-31T02:15:23.747Z,75.33
2018-12-31T02:17:53.850Z,75.21
2018-12-31T02:20:24.976Z,75.49
2018-12-31T02:22:55.177Z,75.12
2018-12-31T02:25:26.286Z,75.40
2018-12-31T02:27:56.466Z,75.64
2018-12-31T02:30:26.599Z,75.10
2018-12-31T02:32:58.777Z,75.38
2018-12-31T02:35:28.810Z,75.76
2018-12-31T02:37:59.206Z,76.11
2018-12-31T02:40:29.335Z,76.23
2018-12-31T02:42:59.449Z,76.09
2018-12-31T02:45:30.549Z,75.90
2018-12-31T02:48:00.915Z,75.75
2018-12-31T02:50:31.011Z,75.54
2018-12-31T02:53:01.157Z,75.57
2018-12-31T02:55:31.257Z,75.97
2018-12-31T02:58:01.694Z,75.86
2018-12-31T03:00:32.060Z,75.97
2018-12-31T03:03:02.168Z,75.82
2018-12-31T03:05:32.319Z,76.43
2018-12-31T03:08:02.777Z,76.07
2018-12-31T03:10:33.137Z,75.94
2018-12-31T03:13:04.297Z,76.19
2018-12-31T03:15:35.405Z,76.10
2018-12-31T03:18:05.540Z,76.15
2018-12-31T03:20:35.662Z,75.74
2018-12-31T03:23:05.830Z,75.93
2018-12-31T03:25:35.913Z,76.01
2018-12-31T03:28:06.034Z,76.09
2018-12-31T03:30:36.419Z,76.88
2018-12-31T03:33:06.544Z,76.50
2018-12-31T03:35:37.628Z,76.11
2018-12-31T03:38:07.770Z,76.24
2018-12-31T03:40:37.954Z,76.06
2018-12-31T03:43:08.047Z,76.00
2018-12-31T03:45:38.190Z,76.36
2018-12-31T03:48:08.326Z,76.48
2018-12-31T03:50:39.719Z,76.28
2018-12-31T03:53:09.827Z,76.37
2018-12-31T03:55:39.917Z,76.43
2018-12-31T03:58:10.319Z,75.86
2018-12-31T04:00:40.429Z,75.83
2018-12-31T04:03:10.547Z,77.06
2018-12-31T04:05:41.619Z,76.72
2018-12-31T04:08:11.740Z,76.69
2018-12-31T04:10:41.882Z,76.71
2018-12-31T04:13:11.992Z,76.84
2018-12-31T04:15:42.134Z,76.89
2018-12-31T04:18:12.521Z,76.41
2018-12-31T04:20:42.623Z,76.49
2018-12-31T04:23:12.756Z,76.64
2018-12-31T04:25:43.154Z,76.52
2018-12-31T04:28:13.577Z,76.55
2018-12-31T04:30:43.755Z,76.23
2018-12-31T04:33:13.917Z,76.10
2018-12-31T04:35:44.528Z,75.93
2018-12-31T04:38:15.119Z,75.98
2018-12-31T04:40:45.240Z,75.95
2018-12-31T04:43:15.458Z,76.11
2018-12-31T04:45:45.616Z,76.29
2018-12-31T04:48:16.802Z,76.93
2018-12-31T04:50:46.938Z,77.45
2018-12-31T04:53:17.122Z,77.54
2018-12-31T04:55:47.304Z,77.10
2018-12-31T04:58:22.907Z,77.08
2018-12-31T05:00:49.566Z,77.36
2018-12-31T05:03:19.808Z,77.66
2018-12-31T05:05:49.965Z,78.20
2018-12-31T05:08:20.115Z,78.63
2018-12-31T05:10:50.245Z,78.60
2018-12-31T05:13:21.414Z,78.60
2018-12-31T05:15:51.563Z,78.89
2018-12-31T05:18:22.052Z,78.99
2018-12-31T05:20:52.204Z,79.06
2018-12-31T05:23:23.451Z,79.14
2018-12-31T05:25:53.620Z,78.95
2018-12-31T05:28:24.056Z,78.77
2018-12-31T05:30:54.492Z,77.85
2018-12-31T05:33:24.622Z,78.14
2018-12-31T05:35:54.850Z,79.14
2018-12-31T05:38:25.312Z,78.98
2018-12-31T05:40:56.518Z,79.47
2018-12-31T05:43:26.639Z,79.23
2018-12-31T05:45:56.800Z,79.36
2018-12-31T05:48:26.923Z,79.63
2018-12-31T05:50:57.037Z,78.69
2018-12-31T05:53:27.534Z,78.60
2018-12-31T05:55:59.783Z,79.10
2018-12-31T05:58:30.525Z,78.99
2018-12-31T06:01:00.753Z,78.90
2018-12-31T06:03:31.144Z,78.82
2018-12-31T06:06:01.649Z,78.44
2018-12-31T06:08:31.804Z,78.51
2018-12-31T06:11:02.388Z,78.30
2018-12-31T06:13:32.522Z,78.33
2018-12-31T06:16:02.926Z,79.20
2018-12-31T06:18:33.400Z,78.81
2018-12-31T06:21:04.227Z,78.24
2018-12-31T06:23:34.648Z,78.21
2018-12-31T06:26:06.142Z,78.55
2018-12-31T06:28:36.849Z,79.01
2018-12-31T06:31:07.066Z,79.04
2018-12-31T06:33:37.208Z,79.45
2018-12-31T06:36:07.479Z,79.33
2018-12-31T06:38:37.596Z,79.58
2018-12-31T06:41:07.821Z,79.55
2018-12-31T06:43:38.172Z,79.23
2018-12-31T06:46:08.643Z,79.51
2018-12-31T06:48:39.161Z,79.42
2018-12-31T06:51:10.505Z,79.83
2018-12-31T06:53:41.248Z,80.11
2018-12-31T06:56:12.124Z,80.31
2018-12-31T06:58:42.250Z,80.42
2018-12-31T07:01:12.519Z,79.93
2018-12-31T07:03:42.660Z,79.92
2018-12-31T07:06:14.052Z,79.66
2018-12-31T07:08:44.274Z,79.93
2018-12-31T07:11:14.399Z,80.18
2018-12-31T07:13:44.579Z,80.31
2018-12-31T07:16:15.715Z,79.32
2018-12-31T07:18:45.811Z,78.52
2018-12-31T07:21:15.983Z,79.18
2018-12-31T07:23:46.138Z,79.75
2018-12-31T07:26:16.513Z,79.89
2018-12-31T07:28:46.992Z,79.75
2018-12-31T07:31:17.089Z,79.83
2018-12-31T07:33:47.497Z,79.75
2018-12-31T07:36:17.616Z,79.82
2018-12-31T07:38:48.017Z,80.00
2018-12-31T07:41:19.418Z,80.28
2018-12-31T07:43:50.932Z,80.05
2018-12-31T07:46:21.384Z,80.26
2018-12-31T07:48:51.503Z,80.16
2018-12-31T07:51:21.610Z,80.43
2018-12-31T07:53:51.984Z,80.33
2018-12-31T07:56:24.101Z,80.05
2018-12-31T07:58:54.854Z,80.01
2018-12-31T08:01:24.963Z,79.28
2018-12-31T08:03:55.425Z,79.21
2018-12-31T08:06:25.544Z,79.60
2018-12-31T08:08:55.742Z,79.01
2018-12-31T08:11:26.139Z,78.65
2018-12-31T08:13:58.313Z,78.46
2018-12-31T08:16:28.376Z,78.98
2018-12-31T08:18:58.885Z,78.69
2018-12-31T08:21:28.991Z,78.81
2018-12-31T08:23:59.299Z,79.50
2018-12-31T08:26:29.425Z,79.16
2018-12-31T08:28:59.553Z,79.83
2018-12-31T08:31:29.922Z,79.30
2018-12-31T08:34:00.313Z,79.25
2018-12-31T08:36:30.689Z,79.39
2018-12-31T08:39:01.394Z,78.83
2018-12-31T08:41:33.897Z,78.73
2018-12-31T08:44:04.018Z,78.15
2018-12-31T08:46:34.174Z,78.29
2018-12-31T08:49:04.331Z,77.94
2018-12-31T08:51:34.453Z,77.86
2018-12-31T08:54:04.653Z,78.00
2018-12-31T08:56:35.309Z,78.11
2018-12-31T08:59:05.687Z,78.16
2018-12-31T09:01:35.918Z,77.81
2018-12-31T09:04:06.098Z,78.68
2018-12-31T09:06:36.759Z,78.41
2018-12-31T09:09:08.353Z,78.66
2018-12-31T09:11:38.741Z,78.59
2018-12-31T09:14:09.152Z,78.63
2018-12-31T09:16:39.301Z,78.96
2018-12-31T09:19:11.623Z,79.54
2018-12-31T09:21:41.802Z,78.52
2018-12-31T09:24:12.171Z,77.95
2018-12-31T09:26:42.591Z,78.10
2018-12-31T09:29:13.385Z,78.49
2018-12-31T09:31:43.770Z,79.27
2018-12-31T09:34:14.027Z,78.63
2018-12-31T09:36:44.733Z,78.76
2018-12-31T09:39:15.201Z,78.67
2018-12-31T09:41:45.627Z,78.67
2018-12-31T09:44:16.120Z,77.81
2018-12-31T09:46:47.327Z,77.33
2018-12-31T09:49:23.853Z,78.06
2018-12-31T09:51:55.099Z,78.00
2018-12-31T09:54:25.225Z,77.43
2018-12-31T09:56:56.867Z,78.33
2018-12-31T09:59:27.310Z,77.99
2018-12-31T10:01:57.700Z,78.09
2018-12-31T10:04:27.976Z,77.76
2018-12-31T10:06:58.077Z,78.26
2018-12-31T10:09:28.490Z,77.76
2018-12-31T10:11:58.916Z,76.80
2018-12-31T10:14:29.097Z,76.19
2018-12-31T10:16:59.221Z,76.04
2018-12-31T10:19:29.406Z,76.30
2018-12-31T10:21:59.677Z,76.49
2018-12-31T10:24:30.089Z,76.54
2018-12-31T10:27:00.252Z,77.14
2018-12-31T10:29:35.904Z,76.37
2018-12-31T10:32:02.208Z,76.58
2018-12-31T10:34:32.980Z,76.74
2018-12-31T10:37:04.089Z,76.62
2018-12-31T10:39:34.211Z,76.46
2018-12-31T10:42:04.678Z,76.94
2018-12-31T10:44:39.903Z,76.48
2018-12-31T10:47:10.069Z,76.57
2018-12-31T10:49:41.421Z,76.40
2018-12-31T10:52:11.635Z,76.10
2018-12-31T10:54:41.765Z,76.42
2018-12-31T10:57:11.961Z,77.52
2018-12-31T10:59:42.122Z,78.28
2018-12-31T11:02:12.270Z,77.75
2018-12-31T11:05:06.761Z,77.29
2018-12-31T11:07:36.917Z,76.96
2018-12-31T11:10:07.336Z,77.12
2018-12-31T11:12:38.500Z,76.50
2018-12-31T11:15:09.888Z,75.78
2018-12-31T11:17:40.027Z,75.26
2018-12-31T11:20:10.161Z,75.54
2018-12-31T11:22:40.312Z,75.91
2018-12-31T11:25:13.848Z,76.79
2018-12-31T11:27:44.217Z,77.27
2018-12-31T11:30:14.950Z,76.60
2018-12-31T11:32:45.623Z,76.60
2018-12-31T11:35:18.166Z,76.05
2018-12-31T11:37:48.670Z,75.46
2018-12-31T11:40:18.807Z,75.49
2018-12-31T11:42:49.539Z,75.14
2018-12-31T11:45:19.691Z,75.20
2018-12-31T11:47:50.175Z,74.50
2018-12-31T11:50:21.693Z,75.78
2018-12-31T11:52:52.910Z,75.48
2018-12-31T11:55:24.087Z,75.48
2018-12-31T11:57:54.767Z,75.79
2018-12-31T12:00:26.003Z,76.25
2018-12-31T12:02:56.206Z,75.60
2018-12-31T12:05:26.597Z,75.54
2018-12-31T12:07:56.764Z,76.60
2018-12-31T12:10:27.415Z,76.87
2018-12-31T12:12:57.856Z,77.09
2018-12-31T12:15:28.363Z,76.56
2018-12-31T12:17:58.803Z,76.38
2018-12-31T12:20:29.042Z,76.20
2018-12-31T12:22:59.176Z,76.07
2018-12-31T12:25:29.391Z,76.22
2018-12-31T12:27:59.731Z,76.64
2018-12-31T12:30:30.170Z,76.90
2018-12-31T12:33:00.309Z,76.81
2018-12-31T12:35:30.403Z,77.39
2018-12-31T12:38:02.098Z,77.62
2018-12-31T12:40:32.502Z,77.04
2018-12-31T12:43:02.861Z,76.66
2018-12-31T12:45:33.545Z,76.90
2018-12-31T12:48:03.660Z,76.76
2018-12-31T12:50:33.802Z,76.41
2018-12-31T12:53:04.229Z,76.30
2018-12-31T12:55:34.725Z,76.35
2018-12-31T12:58:04.997Z,76.66
2018-12-31T13:00:35.116Z,76.89
2018-12-31T13:03:05.342Z,78.60
2018-12-31T13:05:35.487Z,78.25
2018-12-31T13:08:05.649Z,78.34
2018-12-31T13:10:36.049Z,78.10
2018-12-31T13:13:06.541Z,77.47
2018-12-31T13:15:36.739Z,77.54
2018-12-31T13:18:06.872Z,77.42
2018-12-31T13:20:37.291Z,77.62
2018-12-31T13:23:07.455Z,77.22
2018-12-31T13:25:37.598Z,77.40
2018-12-31T13:28:07.824Z,78.09
2018-12-31T13:30:37.920Z,77.93
2018-12-31T13:33:08.314Z,78.82
2018-12-31T13:35:39.247Z,78.85
2018-12-31T13:38:09.784Z,79.12
2018-12-31T13:40:39.898Z,78.97
2018-12-31T13:43:11.020Z,79.88
2018-12-31T13:45:41.195Z,79.63
2018-12-31T13:48:11.556Z,79.83
2018-12-31T13:50:41.989Z,79.46
2018-12-31T13:53:12.353Z,79.04
2018-12-31T13:55:42.499Z,78.73
2018-12-31T13:58:13.173Z,78.84
2018-12-31T14:00:43.473Z,79.18
2018-12-31T14:03:17.568Z,79.03
2018-12-31T14:05:46.155Z,79.25
2018-12-31T14:08:16.335Z,79.38
2018-12-31T14:10:46.761Z,78.94
2018-12-31T14:13:17.004Z,79.90
2018-12-31T14:15:47.158Z,80.57
2018-12-31T14:18:17.654Z,80.19
2018-12-31T14:20:47.968Z,79.62
2018-12-31T14:24:34.212Z,79.38
2018-12-31T14:27:04.394Z,79.59
2018-12-31T14:29:35.046Z,79.32
2018-12-31T14:32:05.329Z,79.45
2018-12-31T14:34:38.823Z,79.83
2018-12-31T14:37:09.212Z,80.30
2018-12-31T14:39:39.713Z,79.78
2018-12-31T14:42:16.831Z,79.28
2018-12-31T14:44:54.561Z,79.31
2018-12-31T14:47:24.993Z,79.74
2018-12-31T14:49:55.669Z,80.32
2018-12-31T14:52:30.090Z,80.35
2018-12-31T14:55:02.470Z,79.49
2018-12-31T14:57:32.642Z,79.50
2018-12-31T15:00:03.124Z,79.67
2018-12-31T15:02:33.271Z,79.83
2018-12-31T15:05:03.406Z,80.13
2018-12-31T15:07:34.193Z,80.71
2018-12-31T15:10:04.479Z,80.80
2018-12-31T15:12:34.615Z,80.59
2018-12-31T15:15:05.709Z,80.93
2018-12-31T15:17:35.943Z,81.22
2018-12-31T15:20:09.840Z,81.25
2018-12-31T15:22:40.015Z,81.22
2018-12-31T15:25:10.234Z,81.01
2018-12-31T15:27:40.682Z,80.72
2018-12-31T15:30:11.068Z,80.84
2018-12-31T15:32:41.801Z,80.74
2018-12-31T15:35:12.157Z,80.42
2018-12-31T15:37:42.645Z,80.16
2018-12-31T15:40:13.465Z,80.97
2018-12-31T15:42:43.928Z,81.75
2018-12-31T15:45:14.168Z,81.77
2018-12-31T15:47:44.326Z,81.08
2018-12-31T15:50:14.479Z,80.96
2018-12-31T15:52:44.672Z,81.55
2018-12-31T15:55:18.046Z,81.80
2018-12-31T15:57:48.517Z,81.60
2018-12-31T16:00:18.823Z,81.09
2018-12-31T16:02:49.271Z,81.59
2018-12-31T16:05:19.414Z,81.74
2018-12-31T16:07:49.852Z,82.35
2018-12-31T16:10:20.041Z,82.22
2018-12-31T16:12:50.204Z,82.10
2018-12-31T16:15:20.954Z,82.21
2018-12-31T16:17:51.261Z,82.04
2018-12-31T16:20:21.425Z,81.67
2018-12-31T16:22:53.079Z,81.61
2018-12-31T16:25:23.168Z,82.24
2018-12-31T16:27:53.586Z,82.22
2018-12-31T16:30:24.364Z,81.85
2018-12-31T16:32:54.587Z,81.55
2018-12-31T16:35:24.729Z,81.33
2018-12-31T16:37:55.134Z,81.38
2018-12-31T16:40:25.254Z,81.71
2018-12-31T16:42:55.408Z,81.88
2018-12-31T16:45:26.080Z,81.71
2018-12-31T16:47:56.201Z,81.61
2018-12-31T16:50:26.364Z,80.94
2018-12-31T16:52:56.533Z,81.07
2018-12-31T16:55:26.675Z,81.08
2018-12-31T16:57:58.564Z,81.36
2018-12-31T17:00:28.802Z,80.88
2018-12-31T17:02:58.963Z,80.75
2018-12-31T17:05:29.255Z,81.27
2018-12-31T17:07:59.756Z,81.93
2018-12-31T17:10:29.875Z,82.14
2018-12-31T17:13:00.037Z,81.90
2018-12-31T17:15:30.189Z,81.61
2018-12-31T17:18:00.329Z,82.39
2018-12-31T17:20:30.458Z,82.61
2018-12-31T17:23:00.669Z,82.42
2018-12-31T17:25:31.136Z,81.96
2018-12-31T17:28:01.703Z,82.19
2018-12-31T17:30:31.860Z,82.35
2018-12-31T17:33:02.611Z,82.63
2018-12-31T17:35:32.732Z,82.24
2018-12-31T17:38:02.938Z,82.21
2018-12-31T17:40:33.063Z,82.67
2018-12-31T17:43:03.460Z,82.38
2018-12-31T17:45:33.566Z,82.37
2018-12-31T17:48:04.707Z,82.98
2018-12-31T17:50:34.857Z,82.60
2018-12-31T17:53:05.146Z,82.32
2018-12-31T17:55:35.240Z,81.75
2018-12-31T17:58:05.412Z,81.66
2018-12-31T18:00:35.556Z,82.20
2018-12-31T18:03:05.666Z,81.71
2018-12-31T18:05:35.823Z,81.82
2018-12-31T18:08:06.640Z,82.23
2018-12-31T18:10:36.793Z,81.97
2018-12-31T18:13:06.927Z,81.95
2018-12-31T18:15:37.095Z,82.05
2018-12-31T18:18:07.541Z,82.30
2018-12-31T18:20:37.679Z,82.06
2018-12-31T18:23:07.802Z,81.97
2018-12-31T18:25:38.082Z,81.88
2018-12-31T18:28:08.211Z,81.62
2018-12-31T18:30:38.537Z,81.76
2018-12-31T18:33:09.459Z,81.71
2018-12-31T18:35:39.566Z,81.44
2018-12-31T18:38:10.769Z,82.01
2018-12-31T18:40:41.146Z,82.10
2018-12-31T18:43:11.333Z,82.06
2018-12-31T18:45:41.499Z,81.68
2018-12-31T18:48:11.634Z,81.56
2018-12-31T18:50:41.752Z,82.20
2018-12-31T18:53:11.881Z,82.17
2018-12-31T18:55:42.035Z,81.99
2018-12-31T18:58:12.200Z,81.91
2018-12-31T19:00:42.332Z,81.84
2018-12-31T19:03:12.753Z,81.89
2018-12-31T19:05:43.700Z,81.89
2018-12-31T19:08:13.894Z,82.16
2018-12-31T19:10:44.053Z,81.98
2018-12-31T19:13:14.194Z,82.07
2018-12-31T19:15:44.361Z,81.92
2018-12-31T19:18:14.749Z,81.63
2018-12-31T19:20:45.182Z,81.64
2018-12-31T19:23:15.287Z,81.90
2018-12-31T19:25:45.708Z,81.73
2018-12-31T19:28:16.059Z,81.72
2018-12-31T19:30:46.195Z,81.49
2018-12-31T19:33:16.318Z,81.71
2018-12-31T19:35:46.536Z,82.10
2018-12-31T19:38:16.654Z,81.92
2018-12-31T19:40:47.137Z,82.27
2018-12-31T19:43:17.554Z,82.03
2018-12-31T19:45:48.673Z,82.02
2018-12-31T19:48:18.833Z,81.92
2018-12-31T19:50:48.981Z,82.00
2018-12-31T19:53:19.775Z,82.00
2018-12-31T19:55:49.926Z,82.10
2018-12-31T19:58:20.106Z,81.95
2018-12-31T20:00:50.239Z,82.23
2018-12-31T20:03:20.459Z,82.17
2018-12-31T20:05:50.762Z,82.36
2018-12-31T20:08:21.225Z,81.36
2018-12-31T20:10:51.677Z,81.87
2018-12-31T20:13:22.038Z,82.11
2018-12-31T20:15:52.221Z,82.27
2018-12-31T20:18:22.431Z,82.39
2018-12-31T20:20:52.544Z,82.33
2018-12-31T20:23:22.677Z,82.49
2018-12-31T20:25:53.110Z,82.31
2018-12-31T20:28:23.363Z,82.41
2018-12-31T20:30:53.507Z,82.36
2018-12-31T20:33:23.649Z,82.13
2018-12-31T20:35:53.803Z,82.20
2018-12-31T20:38:23.923Z,82.31
2018-12-31T20:40:54.318Z,81.61
2018-12-31T20:43:24.443Z,82.21
2018-12-31T20:45:54.586Z,82.15
2018-12-31T20:48:24.684Z,82.23
2018-12-31T20:50:54.827Z,82.12
2018-12-31T20:53:25.232Z,82.06
2018-12-31T20:55:55.349Z,82.11
2018-12-31T20:58:25.469Z,82.20
2018-12-31T21:00:55.846Z,82.07
2018-12-31T21:03:25.964Z,82.03
2018-12-31T21:05:56.127Z,81.83
2018-12-31T21:08:26.602Z,81.84
2018-12-31T21:10:56.789Z,81.58
2018-12-31T21:13:26.929Z,81.57
2018-12-31T21:15:57.067Z,81.63
2018-12-31T21:18:27.749Z,81.61
2018-12-31T21:20:58.234Z,81.46
2018-12-31T21:23:28.373Z,81.55
2018-12-31T21:25:58.704Z,81.38
2018-12-31T21:28:28.976Z,81.36
2018-12-31T21:30:59.086Z,81.39
2018-12-31T21:33:29.210Z,81.46
2018-12-31T21:35:59.427Z,81.53
2018-12-31T21:38:29.598Z,81.47
2018-12-31T21:40:59.712Z,81.58
2018-12-31T21:43:29.845Z,81.66
2018-12-31T21:46:00.344Z,81.68
2018-12-31T21:48:30.523Z,81.66
2018-12-31T21:51:00.644Z,81.50
2018-12-31T21:53:30.790Z,81.77
2018-12-31T21:56:01.319Z,81.94
2018-12-31T21:58:31.882Z,81.67
2018-12-31T22:01:02.018Z,81.46
2018-12-31T22:03:32.171Z,81.39
2018-12-31T22:06:02.624Z,81.41
2018-12-31T22:08:32.762Z,81.41
2018-12-31T22:11:02.904Z,81.86
2018-12-31T22:13:33.038Z,81.74
2018-12-31T22:16:03.459Z,81.63
2018-12-31T22:18:33.776Z,81.41
2018-12-31T22:21:04.360Z,81.46
2018-12-31T22:23:34.486Z,81.38
2018-12-31T22:26:04.669Z,81.29
2018-12-31T22:28:34.842Z,81.20
2018-12-31T22:31:05.023Z,81.36
2018-12-31T22:33:35.199Z,81.54
2018-12-31T22:36:05.563Z,81.49
2018-12-31T22:38:35.697Z,81.48
2018-12-31T22:41:05.836Z,81.46
2018-12-31T22:43:36.387Z,80.74
2018-12-31T22:46:06.523Z,80.58
2018-12-31T22:48:36.670Z,80.52
2018-12-31T22:51:06.808Z,80.16
2018-12-31T22:53:37.649Z,80.80
2018-12-31T22:56:07.827Z,80.77
2018-12-31T22:58:38.053Z,80.11
2018-12-31T23:01:08.356Z,80.24
2018-12-31T23:03:38.638Z,80.34
2018-12-31T23:06:08.743Z,80.43
2018-12-31T23:08:39.168Z,80.32
2018-12-31T23:11:09.306Z,80.12
2018-12-31T23:13:41.550Z,79.79
2018-12-31T23:16:19.407Z,79.61
2018-12-31T23:18:49.872Z,79.85
2018-12-31T23:21:20.149Z,80.30
2018-12-31T23:23:50.357Z,80.28
2018-12-31T23:26:21.294Z,80.16
2018-12-31T23:28:52.758Z,79.83
2018-12-31T23:31:23.247Z,79.45
2018-12-31T23:33:53.482Z,79.93
2018-12-31T23:36:23.774Z,79.51
2018-12-31T23:38:54.248Z,79.65
2018-12-31T23:41:24.526Z,78.94
2018-12-31T23:43:54.870Z,79.00
2018-12-31T23:46:25.040Z,79.28
2018-12-31T23:48:55.309Z,78.72
2018-12-31T23:51:25.716Z,78.96
2018-12-31T23:53:55.940Z,78.81
2018-12-31T23:56:26.619Z,79.10
2018-12-31T23:58:56.744Z,78.55
